createdAt,value
2018-03-22T00:01:36.988Z,3.64
2018-03-22T00:04:04.629Z,3.63
2018-03-22T00:06:32.246Z,3.63
2018-03-22T00:08:59.890Z,3.63
2018-03-22T00:11:27.532Z,3.62
2018-03-22T00:13:55.200Z,3.63
2018-03-22T00:16:22.912Z,3.62
2018-03-22T00:18:50.573Z,3.63
2018-03-22T00:21:18.188Z,3.62
2018-03-22T00:23:45.829Z,3.63
2018-03-22T00:26:13.441Z,3.63
2018-03-22T00:28:41.077Z,3.63
2018-03-22T00:31:08.695Z,3.61
2018-03-22T00:33:36.449Z,3.62
2018-03-22T00:36:04.065Z,3.63
2018-03-22T00:38:31.778Z,3.63
2018-03-22T00:40:59.451Z,3.62
2018-03-22T00:43:27.100Z,3.61
2018-03-22T00:45:54.765Z,3.60
2018-03-22T00:48:22.396Z,3.58
2018-03-22T00:50:50.012Z,3.57
2018-03-22T00:53:17.653Z,3.56
2018-03-22T00:55:45.265Z,3.54
2018-03-22T00:58:12.909Z,3.54
2018-03-22T01:00:40.534Z,3.52
2018-03-22T01:03:08.202Z,3.51
2018-03-22T01:05:35.837Z,3.51
2018-03-22T01:08:03.453Z,3.50
2018-03-22T01:10:31.105Z,3.50
2018-03-22T01:12:58.726Z,3.49
2018-03-22T01:15:26.407Z,3.48
2018-03-22T01:17:54.031Z,3.48
2018-03-22T01:20:21.737Z,3.48
2018-03-22T01:22:49.405Z,3.46
2018-03-22T01:25:17.041Z,3.45
2018-03-22T01:27:44.720Z,3.45
2018-03-22T01:30:24.260Z,3.44
2018-03-22T01:32:51.873Z,3.44
2018-03-22T01:35:19.588Z,3.43
2018-03-22T01:37:47.213Z,3.44
2018-03-22T01:40:14.848Z,3.43
2018-03-22T01:42:42.462Z,3.43
2018-03-22T01:45:10.104Z,3.42
2018-03-22T01:47:37.806Z,3.41
2018-03-22T01:50:05.436Z,3.41
2018-03-22T01:52:33.053Z,3.42
2018-03-22T01:55:00.699Z,3.42
2018-03-22T01:57:28.316Z,3.42
2018-03-22T01:59:55.953Z,3.43
2018-03-22T02:02:23.573Z,3.42
2018-03-22T02:04:51.217Z,3.42
2018-03-22T02:07:18.823Z,3.42
2018-03-22T02:09:46.562Z,3.42
2018-03-22T02:12:14.177Z,3.42
2018-03-22T02:14:41.879Z,3.43
2018-03-22T02:17:09.548Z,3.43
2018-03-22T02:19:37.192Z,3.43
2018-03-22T02:22:04.805Z,3.45
2018-03-22T02:24:32.536Z,3.44
2018-03-22T02:27:00.148Z,3.44
2018-03-22T02:29:27.866Z,3.44
2018-03-22T02:31:55.533Z,3.43
2018-03-22T02:34:23.182Z,3.43
2018-03-22T02:36:50.852Z,3.42
2018-03-22T02:39:18.470Z,3.41
2018-03-22T02:41:46.104Z,3.40
2018-03-22T02:44:13.746Z,3.39
2018-03-22T02:46:41.403Z,3.39
2018-03-22T02:49:09.017Z,3.39
2018-03-22T02:51:36.662Z,3.39
2018-03-22T02:54:04.285Z,3.38
2018-03-22T02:56:31.912Z,3.37
2018-03-22T02:58:59.539Z,3.37
2018-03-22T03:01:27.273Z,3.37
2018-03-22T03:03:54.890Z,3.36
2018-03-22T03:06:22.592Z,3.36
2018-03-22T03:08:50.264Z,3.38
2018-03-22T03:11:17.904Z,3.38
2018-03-22T03:13:45.549Z,3.38
2018-03-22T03:16:13.246Z,3.38
2018-03-22T03:18:40.848Z,3.37
2018-03-22T03:21:08.481Z,3.37
2018-03-22T03:23:36.102Z,3.37
2018-03-22T03:26:03.753Z,3.38
2018-03-22T03:28:31.465Z,3.37
2018-03-22T03:30:59.139Z,3.37
2018-03-22T03:33:26.801Z,3.37
2018-03-22T03:35:54.457Z,3.38
2018-03-22T03:38:22.069Z,3.39
2018-03-22T03:40:49.708Z,3.38
2018-03-22T03:43:17.316Z,3.38
2018-03-22T03:45:44.991Z,3.39
2018-03-22T03:48:12.668Z,3.39
2018-03-22T03:50:40.290Z,3.39
2018-03-22T03:53:07.925Z,3.39
2018-03-22T03:55:35.653Z,3.38
2018-03-22T03:58:03.317Z,3.38
2018-03-22T04:00:30.980Z,3.38
2018-03-22T04:02:58.608Z,3.36
2018-03-22T04:05:26.229Z,3.37
2018-03-22T04:07:53.869Z,3.36
2018-03-22T04:10:21.533Z,3.35
2018-03-22T04:12:49.166Z,3.35
2018-03-22T04:15:16.843Z,3.33
2018-03-22T04:17:44.515Z,3.33
2018-03-22T04:20:12.131Z,3.32
2018-03-22T04:22:39.777Z,3.34
2018-03-22T04:25:07.391Z,3.32
2018-03-22T04:27:35.032Z,3.32
2018-03-22T04:30:02.649Z,3.31
2018-03-22T04:32:30.379Z,3.29
2018-03-22T04:34:57.997Z,3.28
2018-03-22T04:37:25.637Z,3.25
2018-03-22T04:39:53.253Z,3.22
2018-03-22T04:42:20.893Z,3.18
2018-03-22T04:44:48.600Z,3.13
2018-03-22T04:47:16.246Z,3.08
2018-03-22T04:49:43.869Z,3.03
2018-03-22T04:52:11.581Z,2.98
2018-03-22T04:54:39.192Z,2.94
2018-03-22T04:57:06.918Z,2.91
2018-03-22T04:59:34.528Z,2.87
2018-03-22T05:02:02.148Z,2.86
2018-03-22T05:04:29.801Z,2.85
2018-03-22T05:06:57.431Z,2.84
2018-03-22T05:09:25.068Z,2.81
2018-03-22T05:11:52.761Z,2.79
2018-03-22T05:14:20.456Z,2.77
2018-03-22T05:16:48.064Z,2.75
2018-03-22T05:19:15.771Z,2.74
2018-03-22T05:21:43.392Z,2.72
2018-03-22T05:24:11.032Z,2.72
2018-03-22T05:26:38.643Z,2.71
2018-03-22T05:29:06.316Z,2.69
2018-03-22T05:31:33.948Z,2.69
2018-03-22T05:34:01.649Z,2.68
2018-03-22T05:36:29.280Z,2.67
2018-03-22T05:38:57.071Z,2.66
2018-03-22T05:41:24.685Z,2.66
2018-03-22T05:43:52.443Z,2.66
2018-03-22T05:46:20.168Z,2.66
2018-03-22T05:48:47.805Z,2.67
2018-03-22T05:51:15.419Z,2.67
2018-03-22T05:53:44.697Z,2.67
2018-03-22T05:56:12.366Z,2.64
2018-03-22T05:58:39.997Z,2.64
2018-03-22T06:01:07.613Z,2.63
2018-03-22T06:03:35.249Z,2.63
2018-03-22T06:06:02.861Z,2.62
2018-03-22T06:08:30.491Z,2.61
2018-03-22T06:10:58.109Z,2.59
2018-03-22T06:13:25.792Z,2.59
2018-03-22T06:15:53.405Z,2.58
2018-03-22T06:18:21.120Z,2.59
2018-03-22T06:20:48.766Z,2.58
2018-03-22T06:23:16.537Z,2.57
2018-03-22T06:25:44.231Z,2.56
2018-03-22T06:28:11.864Z,2.56
2018-03-22T06:30:39.537Z,2.55
2018-03-22T06:33:07.193Z,2.54
2018-03-22T06:35:34.833Z,2.54
2018-03-22T06:38:02.448Z,2.53
2018-03-22T06:40:30.184Z,2.54
2018-03-22T06:42:57.844Z,2.56
2018-03-22T06:45:25.505Z,2.55
2018-03-22T06:47:53.112Z,2.54
2018-03-22T06:50:20.829Z,2.53
2018-03-22T06:52:48.441Z,2.51
2018-03-22T06:55:16.163Z,2.50
2018-03-22T06:57:43.825Z,2.48
2018-03-22T07:00:11.460Z,2.46
2018-03-22T07:02:39.148Z,2.43
2018-03-22T07:05:06.787Z,2.42
2018-03-22T07:07:34.468Z,2.41
2018-03-22T07:10:02.232Z,2.42
2018-03-22T07:12:29.902Z,2.43
2018-03-22T07:14:57.527Z,2.44
2018-03-22T07:17:25.232Z,2.44
2018-03-22T07:19:52.875Z,2.47
2018-03-22T07:22:20.515Z,2.49
2018-03-22T07:24:48.221Z,2.52
2018-03-22T07:27:15.828Z,2.55
2018-03-22T07:29:43.534Z,2.59
2018-03-22T07:32:11.150Z,2.66
2018-03-22T07:34:38.765Z,2.73
2018-03-22T07:37:06.430Z,2.77
2018-03-22T07:39:34.044Z,2.80
2018-03-22T07:42:01.681Z,2.83
2018-03-22T07:44:34.909Z,2.85
2018-03-22T07:47:02.600Z,2.86
2018-03-22T07:49:30.264Z,2.87
2018-03-22T07:51:57.913Z,2.86
2018-03-22T07:54:25.595Z,2.85
2018-03-22T07:56:53.266Z,2.86
2018-03-22T07:59:20.874Z,2.86
2018-03-22T08:01:48.580Z,2.87
2018-03-22T08:04:16.193Z,2.88
2018-03-22T08:06:43.819Z,2.90
2018-03-22T08:09:11.567Z,2.91
2018-03-22T08:11:39.730Z,2.93
2018-03-22T08:14:07.347Z,2.96
2018-03-22T08:16:35.081Z,2.99
2018-03-22T08:19:02.698Z,2.98
2018-03-22T08:21:30.401Z,2.94
2018-03-22T08:23:58.011Z,2.91
2018-03-22T08:26:25.646Z,2.92
2018-03-22T08:28:53.269Z,2.91
2018-03-22T08:31:20.953Z,2.92
2018-03-22T08:33:48.612Z,2.92
2018-03-22T08:36:16.334Z,2.95
2018-03-22T08:38:43.943Z,3.01
2018-03-22T08:41:11.618Z,3.04
2018-03-22T08:43:39.358Z,3.06
2018-03-22T08:46:06.973Z,3.10
2018-03-22T08:48:34.599Z,3.09
2018-03-22T08:51:02.208Z,3.09
2018-03-22T08:53:29.841Z,3.10
2018-03-22T08:55:57.481Z,3.13
2018-03-22T08:58:25.141Z,3.18
2018-03-22T09:00:52.757Z,3.22
2018-03-22T09:03:20.384Z,3.26
2018-03-22T09:05:47.998Z,3.30
2018-03-22T09:08:15.689Z,3.36
2018-03-22T09:10:43.344Z,3.36
2018-03-22T09:13:11.017Z,3.36
2018-03-22T09:15:38.620Z,3.38
2018-03-22T09:18:06.328Z,3.38
2018-03-22T09:20:33.936Z,3.38
2018-03-22T09:23:01.573Z,3.38
2018-03-22T09:25:29.229Z,3.39
2018-03-22T09:27:56.856Z,3.40
2018-03-22T09:30:24.464Z,3.41
2018-03-22T09:32:52.107Z,3.44
2018-03-22T09:35:19.723Z,3.48
2018-03-22T09:37:47.427Z,3.50
2018-03-22T09:40:15.105Z,3.52
2018-03-22T09:42:42.741Z,3.52
2018-03-22T09:45:10.357Z,3.52
2018-03-22T09:47:37.988Z,3.51
2018-03-22T09:50:05.650Z,3.52
2018-03-22T09:52:33.289Z,3.53
2018-03-22T09:55:00.972Z,3.56
2018-03-22T09:57:28.626Z,3.61
2018-03-22T09:59:56.256Z,3.64
2018-03-22T10:02:23.925Z,3.69
2018-03-22T10:04:51.625Z,3.73
2018-03-22T10:07:19.249Z,3.77
2018-03-22T10:09:46.948Z,3.81
2018-03-22T10:12:14.603Z,3.82
2018-03-22T10:14:42.244Z,3.85
2018-03-22T10:17:09.934Z,3.88
2018-03-22T10:19:37.564Z,3.89
2018-03-22T10:22:05.200Z,3.90
2018-03-22T10:24:32.845Z,3.93
2018-03-22T10:27:00.492Z,3.94
2018-03-22T10:29:28.129Z,3.97
2018-03-22T10:31:55.813Z,4.01
2018-03-22T10:34:23.448Z,4.04
2018-03-22T10:36:51.056Z,4.06
2018-03-22T10:39:18.693Z,4.08
2018-03-22T10:41:46.311Z,4.08
2018-03-22T10:44:13.944Z,4.10
2018-03-22T10:46:41.575Z,4.09
2018-03-22T10:49:09.217Z,4.09
2018-03-22T10:51:36.833Z,4.12
2018-03-22T10:54:04.576Z,4.12
2018-03-22T10:56:32.183Z,4.11
2018-03-22T10:58:59.821Z,4.12
2018-03-22T11:01:33.112Z,4.13
2018-03-22T11:04:07.568Z,4.14
2018-03-22T11:06:35.277Z,4.13
2018-03-22T11:09:02.913Z,4.14
2018-03-22T11:11:30.523Z,4.17
2018-03-22T11:13:58.185Z,4.19
2018-03-22T11:16:25.816Z,4.19
2018-03-22T11:18:53.436Z,4.19
2018-03-22T11:21:21.067Z,4.18
2018-03-22T11:23:48.703Z,4.18
2018-03-22T11:26:16.341Z,4.17
2018-03-22T11:28:43.955Z,4.17
2018-03-22T11:31:11.700Z,4.19
2018-03-22T11:33:39.357Z,4.20
2018-03-22T11:36:06.992Z,4.20
2018-03-22T11:38:34.605Z,4.19
2018-03-22T11:41:02.236Z,4.22
2018-03-22T11:43:29.849Z,4.23
2018-03-22T11:45:57.479Z,4.25
2018-03-22T11:48:25.232Z,4.22
2018-03-22T11:50:52.889Z,4.28
2018-03-22T11:53:20.565Z,4.33
2018-03-22T11:55:48.226Z,4.36
2018-03-22T11:58:15.882Z,4.37
2018-03-22T12:00:43.517Z,4.36
2018-03-22T12:03:11.133Z,4.35
2018-03-22T12:05:38.761Z,4.35
2018-03-22T12:08:06.439Z,4.36
2018-03-22T12:10:34.095Z,4.38
2018-03-22T12:13:01.767Z,4.38
2018-03-22T12:15:29.520Z,4.40
2018-03-22T12:17:57.192Z,4.41
2018-03-22T12:20:24.837Z,4.42
2018-03-22T12:22:52.453Z,4.43
2018-03-22T12:25:20.093Z,4.42
2018-03-22T12:27:47.731Z,4.46
2018-03-22T12:30:15.370Z,4.49
2018-03-22T12:32:43.048Z,4.52
2018-03-22T12:35:10.726Z,4.56
2018-03-22T12:37:38.371Z,4.59
2018-03-22T12:40:06.048Z,4.62
2018-03-22T12:42:33.689Z,4.64
2018-03-22T12:45:01.382Z,4.69
2018-03-22T12:47:29.021Z,4.70
2018-03-22T12:49:56.627Z,4.72
2018-03-22T12:52:24.375Z,4.76
2018-03-22T12:54:52.037Z,4.80
2018-03-22T12:57:19.692Z,4.85
2018-03-22T12:59:47.356Z,4.89
2018-03-22T13:02:14.997Z,4.93
2018-03-22T13:04:42.613Z,4.98
2018-03-22T13:07:10.335Z,5.05
2018-03-22T13:09:38.009Z,5.10
2018-03-22T13:12:05.650Z,5.16
2018-03-22T13:14:33.259Z,5.20
2018-03-22T13:17:00.888Z,5.25
2018-03-22T13:19:28.556Z,5.29
2018-03-22T13:21:56.225Z,5.32
2018-03-22T13:24:23.839Z,5.36
2018-03-22T13:26:51.537Z,5.40
2018-03-22T13:29:19.209Z,5.44
2018-03-22T13:31:46.850Z,5.50
2018-03-22T13:34:14.532Z,5.55
2018-03-22T13:36:42.169Z,5.62
2018-03-22T13:39:09.855Z,5.70
2018-03-22T13:41:37.488Z,5.78
2018-03-22T13:44:05.095Z,5.85
2018-03-22T13:46:32.728Z,5.94
2018-03-22T13:49:00.340Z,6.00
2018-03-22T13:51:27.953Z,6.03
2018-03-22T13:53:55.633Z,6.06
2018-03-22T13:56:23.291Z,6.08
2018-03-22T13:58:50.969Z,6.09
2018-03-22T14:01:18.587Z,6.10
2018-03-22T14:03:46.221Z,6.11
2018-03-22T14:06:13.833Z,6.11
2018-03-22T14:08:41.471Z,6.12
2018-03-22T14:11:09.086Z,6.15
2018-03-22T14:13:36.720Z,6.18
2018-03-22T14:16:04.349Z,6.22
2018-03-22T14:18:31.993Z,6.27
2018-03-22T14:20:59.712Z,6.30
2018-03-22T14:23:27.345Z,6.34
2018-03-22T14:25:54.959Z,6.34
2018-03-22T14:28:22.594Z,6.33
2018-03-22T14:30:50.213Z,6.33
2018-03-22T14:33:17.851Z,6.33
2018-03-22T14:35:45.490Z,6.35
2018-03-22T14:38:13.120Z,6.35
2018-03-22T14:40:40.720Z,6.35
2018-03-22T14:43:08.373Z,6.33
2018-03-22T14:45:36.030Z,6.32
2018-03-22T14:48:03.658Z,6.31
2018-03-22T14:50:31.280Z,6.28
2018-03-22T14:52:58.921Z,6.25
2018-03-22T14:55:26.532Z,6.21
2018-03-22T14:57:54.248Z,6.18
2018-03-22T15:00:21.864Z,6.15
2018-03-22T15:02:49.492Z,6.14
2018-03-22T15:05:17.109Z,6.14
2018-03-22T15:07:44.724Z,6.14
2018-03-22T15:10:12.366Z,6.15
2018-03-22T15:12:39.976Z,6.14
2018-03-22T15:15:07.613Z,6.12
2018-03-22T15:17:35.217Z,6.10
2018-03-22T15:20:02.909Z,6.07
2018-03-22T15:22:30.521Z,6.06
2018-03-22T15:24:58.233Z,6.03
2018-03-22T15:27:25.898Z,6.01
2018-03-22T15:29:53.553Z,6.01
2018-03-22T15:32:21.160Z,6.00
2018-03-22T15:34:48.787Z,6.00
2018-03-22T15:37:16.396Z,5.99
2018-03-22T15:39:44.033Z,5.98
2018-03-22T15:42:11.636Z,5.97
2018-03-22T15:44:39.273Z,5.97
2018-03-22T15:47:06.993Z,5.96
2018-03-22T15:49:34.632Z,5.95
2018-03-22T15:52:02.311Z,5.94
2018-03-22T15:54:30.141Z,5.94
2018-03-22T15:57:01.848Z,5.92
2018-03-22T15:59:29.600Z,5.92
2018-03-22T16:01:57.228Z,5.91
2018-03-22T16:04:24.864Z,5.91
2018-03-22T16:06:52.472Z,5.91
2018-03-22T16:09:20.113Z,5.91
2018-03-22T16:11:47.911Z,5.92
2018-03-22T16:14:15.893Z,5.93
2018-03-22T16:16:43.503Z,5.92
2018-03-22T16:19:11.131Z,5.91
2018-03-22T16:21:38.752Z,5.92
2018-03-22T16:24:06.385Z,5.92
2018-03-22T16:26:34.096Z,5.91
2018-03-22T16:29:01.760Z,5.91
2018-03-22T16:31:29.443Z,5.91
2018-03-22T16:33:57.095Z,5.90
2018-03-22T16:36:24.740Z,5.89
2018-03-22T16:38:52.356Z,5.89
2018-03-22T16:41:20.085Z,5.87
2018-03-22T16:43:47.740Z,5.83
2018-03-22T16:46:15.372Z,5.80
2018-03-22T16:48:42.983Z,5.78
2018-03-22T16:51:10.725Z,5.76
2018-03-22T16:53:39.281Z,5.74
2018-03-22T16:56:06.916Z,5.73
2018-03-22T16:58:34.529Z,5.69
2018-03-22T17:01:02.200Z,5.66
2018-03-22T17:03:29.812Z,5.64
2018-03-22T17:05:57.453Z,5.62
2018-03-22T17:08:25.067Z,5.61
2018-03-22T17:10:52.701Z,5.61
2018-03-22T17:13:20.311Z,5.61
2018-03-22T17:15:47.977Z,5.58
2018-03-22T17:18:15.597Z,5.57
2018-03-22T17:20:43.292Z,5.53
2018-03-22T17:23:10.915Z,5.50
2018-03-22T17:25:38.557Z,5.46
2018-03-22T17:28:06.182Z,5.45
2018-03-22T17:30:33.817Z,5.43
2018-03-22T17:33:01.503Z,5.40
2018-03-22T17:35:29.141Z,5.39
2018-03-22T17:37:56.828Z,5.36
2018-03-22T17:40:24.505Z,5.36
2018-03-22T17:42:52.148Z,5.33
2018-03-22T17:45:19.837Z,5.31
2018-03-22T17:47:47.489Z,5.29
2018-03-22T17:50:15.153Z,5.29
2018-03-22T17:52:42.780Z,5.26
2018-03-22T17:55:10.394Z,5.24
2018-03-22T17:57:38.084Z,5.21
2018-03-22T18:00:05.676Z,5.19
2018-03-22T18:02:33.312Z,5.17
2018-03-22T18:05:00.926Z,5.16
2018-03-22T18:07:28.565Z,5.14
2018-03-22T18:09:56.251Z,5.14
2018-03-22T18:12:23.888Z,5.13
2018-03-22T18:14:51.548Z,5.11
2018-03-22T18:17:19.184Z,5.08
2018-03-22T18:19:46.816Z,5.06
2018-03-22T18:22:14.465Z,5.02
2018-03-22T18:24:42.077Z,4.98
2018-03-22T18:27:09.790Z,4.96
2018-03-22T18:29:37.453Z,4.92
2018-03-22T18:32:05.164Z,4.91
2018-03-22T18:34:32.784Z,4.90
2018-03-22T18:37:00.411Z,4.85
2018-03-22T18:39:28.100Z,4.83
2018-03-22T18:41:55.728Z,4.81
2018-03-22T18:44:23.349Z,4.78
2018-03-22T18:46:51.089Z,4.75
2018-03-22T18:49:18.692Z,4.70
2018-03-22T18:51:46.323Z,4.66
2018-03-22T18:54:13.941Z,4.60
2018-03-22T18:56:41.556Z,4.58
2018-03-22T18:59:09.268Z,4.55
2018-03-22T19:01:36.961Z,4.55
2018-03-22T19:04:04.605Z,4.53
2018-03-22T19:06:32.287Z,4.49
2018-03-22T19:08:59.929Z,4.47
2018-03-22T19:11:27.608Z,4.43
2018-03-22T19:13:55.277Z,4.43
2018-03-22T19:16:22.880Z,4.38
2018-03-22T19:18:50.524Z,4.36
2018-03-22T19:21:18.141Z,4.32
2018-03-22T19:23:45.775Z,4.30
2018-03-22T19:26:13.637Z,4.31
2018-03-22T19:28:41.269Z,4.29
2018-03-22T19:31:08.901Z,4.28
2018-03-22T19:33:36.672Z,4.25
2018-03-22T19:36:04.345Z,4.23
2018-03-22T19:38:31.975Z,4.21
2018-03-22T19:40:59.584Z,4.22
2018-03-22T19:43:27.338Z,4.23
2018-03-22T19:45:54.987Z,4.23
2018-03-22T19:48:22.620Z,4.25
2018-03-22T19:50:50.231Z,4.25
2018-03-22T19:53:17.871Z,4.25
2018-03-22T19:55:45.483Z,4.24
2018-03-22T19:58:13.156Z,4.22
2018-03-22T20:00:40.776Z,4.21
2018-03-22T20:03:08.420Z,4.20
2018-03-22T20:05:36.076Z,4.17
2018-03-22T20:08:03.685Z,4.16
2018-03-22T20:10:31.424Z,4.13
2018-03-22T20:12:59.080Z,4.13
2018-03-22T20:15:26.768Z,4.10
2018-03-22T20:17:54.375Z,4.07
2018-03-22T20:20:22.004Z,4.05
2018-03-22T20:22:49.628Z,4.01
2018-03-22T20:25:17.255Z,4.01
2018-03-22T20:27:44.864Z,3.99
2018-03-22T20:30:12.501Z,3.98
2018-03-22T20:32:40.176Z,3.96
2018-03-22T20:35:07.820Z,3.95
2018-03-22T20:37:35.436Z,3.95
2018-03-22T20:40:03.073Z,3.93
2018-03-22T20:42:30.693Z,3.90
2018-03-22T20:44:58.389Z,3.88
2018-03-22T20:47:26.058Z,3.88
2018-03-22T20:49:53.725Z,3.86
2018-03-22T20:52:21.337Z,3.83
2018-03-22T20:54:48.968Z,3.79
2018-03-22T20:57:16.596Z,3.76
2018-03-22T20:59:44.228Z,3.75
2018-03-22T21:02:11.929Z,3.75
2018-03-22T21:04:39.589Z,3.72
2018-03-22T21:07:07.253Z,3.70
2018-03-22T21:09:34.892Z,3.68
2018-03-22T21:12:02.509Z,3.66
2018-03-22T21:14:30.139Z,3.63
2018-03-22T21:16:57.800Z,3.64
2018-03-22T21:19:25.457Z,3.62
2018-03-22T21:21:53.133Z,3.61
2018-03-22T21:24:20.784Z,3.61
2018-03-22T21:26:48.404Z,3.58
2018-03-22T21:29:16.024Z,3.56
2018-03-22T21:31:43.676Z,3.54
2018-03-22T21:34:11.289Z,3.51
2018-03-22T21:36:38.929Z,3.48
2018-03-22T21:39:06.657Z,3.47
2018-03-22T21:41:34.294Z,3.48
2018-03-22T21:44:12.638Z,3.46
2018-03-22T21:46:40.292Z,3.43
2018-03-22T21:49:07.895Z,3.40
2018-03-22T21:51:35.633Z,3.40
2018-03-22T21:54:03.240Z,3.38
2018-03-22T21:56:30.878Z,3.36
2018-03-22T21:58:58.499Z,3.34
2018-03-22T22:01:26.144Z,3.31
2018-03-22T22:03:53.759Z,3.30
2018-03-22T22:06:21.389Z,3.29
2018-03-22T22:08:49.054Z,3.29
2018-03-22T22:11:16.729Z,3.27
2018-03-22T22:13:44.335Z,3.25
2018-03-22T22:16:12.640Z,3.26
2018-03-22T22:18:40.421Z,3.27
2018-03-22T22:21:08.097Z,3.24
2018-03-22T22:23:35.704Z,3.23
2018-03-22T22:26:03.336Z,3.22
2018-03-22T22:28:30.985Z,3.22
2018-03-22T22:30:58.639Z,3.21
2018-03-22T22:33:26.305Z,3.20
2018-03-22T22:35:53.957Z,3.19
2018-03-22T22:38:21.568Z,3.21
2018-03-22T22:40:49.185Z,3.20
2018-03-22T22:43:16.820Z,3.22
2018-03-22T22:45:44.437Z,3.22
2018-03-22T22:48:12.172Z,3.22
2018-03-22T22:50:39.843Z,3.23
2018-03-22T22:53:07.481Z,3.24
2018-03-22T22:55:35.087Z,3.24
2018-03-22T22:58:02.724Z,3.26
2018-03-22T23:00:30.336Z,3.28
2018-03-22T23:02:57.968Z,3.27
2018-03-22T23:05:25.572Z,3.26
2018-03-22T23:07:53.248Z,3.25
2018-03-22T23:10:20.854Z,3.25
2018-03-22T23:12:48.601Z,3.23
2018-03-22T23:15:16.207Z,3.22
2018-03-22T23:17:43.919Z,3.20
2018-03-22T23:20:11.593Z,3.19
2018-03-22T23:22:39.272Z,3.20
2018-03-22T23:25:06.880Z,3.21
2018-03-22T23:27:34.571Z,3.21
2018-03-22T23:30:02.243Z,3.22
2018-03-22T23:32:29.907Z,3.21
2018-03-22T23:34:57.521Z,3.22
2018-03-22T23:37:25.233Z,3.22
2018-03-22T23:39:52.888Z,3.22
2018-03-22T23:42:20.526Z,3.21
2018-03-22T23:44:48.141Z,3.22
2018-03-22T23:47:15.781Z,3.22
2018-03-22T23:49:43.391Z,3.22
2018-03-22T23:52:11.033Z,3.23
2018-03-22T23:54:38.659Z,3.23
2018-03-22T23:57:06.316Z,3.24
2018-03-22T23:59:33.989Z,3.24
